Rafael Almeida

Olheiro-Chefe - Famalicao
23 Abr 2028
Domingo
Processo

Personalidade

Adaptabilidade (19) Ambição (6) Controvérsia (13) Lealdade (19) Pressão (15) Profissionalismo (5) Espírito Esportivo (6) Temperamento (14)

Perfil

Estilo de Treinamento Democrático
Licença Continental Pro
Determinação 10
Gestão de Pessoas 6
Motivação 4
Disciplina 5
Satisfação no Trabalho
73%
Fadiga
0%
Função Olheiro-Chefe
Salário 28.7K p/s
Contrato 14.03.2030

Desempenho

Comportamento Bom
Eficácia do Treinamento
36%
Desenvolvimento do Jogador
60%
Prevenção de Lesões
20%
Implementação Tática
30%

Eventos Recentes

Participou de uma reunião de recrutamento agora
Participou de uma reunião de recrutamento agora
Participou de uma reunião de recrutamento agora
Participou de uma reunião de recrutamento agora
Participou de uma reunião de recrutamento agora
Participou de uma reunião de recrutamento agora
Avaliou um jogador agora
Avaliou um jogador agora

Monitorando agora

145
Jogador Clube Status Habilidade Confiança Observado Última observação Último voto
Bernardo Lima Porto Ativo 109 / 119 40% 4 22.04.2028 -
Trey Nyoni Rotherham United Ativo 142 / 144 40% 2 22.04.2028 -
Thijs Kraaijeveld USM Alger Ativo 121 / 129 40% 1 22.04.2028 -
Lamine Bèye Portimonense Ativo 113 / 125 40% 2 20.04.2028 -
Andrija Bulatović Chamois Niortais Ativo 127 / 131 40% 2 20.04.2028 -
Khalis Merah Olympique Lyonnais Ativo 130 / 137 40% 1 20.04.2028 -
Kamaldeen Atiemo Wa All Stars Ativo 109 / 118 40% 2 19.04.2028 -
Itumeleng Jali Spezia Ativo 118 / 124 40% 1 19.04.2028 -
Olivier Leroux Mouscron Ativo 106 / 107 40% 3 18.04.2028 -
Celías Ingenthron Platense Ativo 109 / 134 40% 1 18.04.2028 -
Ayden Heaven Portsmouth Ativo 149 / 155 40% 2 17.04.2028 -
Tyler Fletcher Rotherham United Ativo 115 / 118 40% 5 17.04.2028 -
Andrey Ivlev Nizhniy Novgorod Ativo 120 / 117 40% 1 17.04.2028 -
Riquelme Thompson-Jones Accrington Stanley Ativo 109 / 119 40% 2 11.04.2028 -
Tylel Tati Chamois Niortais Ativo 123 / 132 40% 2 11.04.2028 -
Jorthy Mokio ADO Den Haag Ativo 131 / 137 40% 1 11.04.2028 -
Nicolas Sport Recife Ativo 107 / 109 40% 3 09.04.2028 -
Malte Heyde Esbjerg Ativo 105 / 116 40% 1 09.04.2028 -
Andrea Cogoni Cosenza Ativo 112 / 119 40% 1 09.04.2028 -
Giovanni Leoni Lincoln City Ativo 141 / 143 40% 6 07.04.2028 -
Josh King Newcastle United Ativo 147 / 151 40% 5 07.04.2028 -
Dmitry Pestryakov Krasnodar Ativo 120 / 124 40% 2 06.04.2028 -
Alani Maritimo Ativo 105 / 111 40% 4 06.04.2028 -
Moncef Zekri Sporting CP Relatório pronto 105 / 111 67% 2 06.04.2028 -
Vinícius Lira São Paulo Ativo 119 / 132 40% 2 04.04.2028 -
Finn Jeltsch VfB Stuttgart Ativo 144 / 141 40% 2 04.04.2028 -
Daniel Banjaqui Benfica Ativo 127 / 130 40% 3 03.04.2028 -
Nathan De Cat SC Freiburg Ativo 136 / 135 40% 1 27.03.2028 -
Mattia Puzone Siracusa Ativo 107 / 109 40% 1 21.03.2028 -
Jan Bürger Northampton Town Ativo 115 / 120 40% 2 17.03.2028 -
Josh Acheampong Everton Ativo 144 / 148 40% 3 14.03.2028 -
Jorge Moreno Athletic Bilbao Ativo 123 / 134 40% 4 13.03.2028 -
Honest Ahanor Atalanta Ativo 138 / 140 40% 1 13.03.2028 -
Pablo Lúcio St. Gallen Ativo 109 / 120 40% 1 10.03.2028 -
Bongani Jali Free State Stars Ativo 101 / 101 40% 1 09.03.2028 -
Miguel Figueiredo Benfica Ativo 111 / 121 40% 1 08.03.2028 -
Edvard Pettersen Sandefjord Ativo 116 / 108 40% 1 08.03.2028 -
Matvey Bardachev Zenit Ativo 101 / 121 40% 1 06.03.2028 -
Germán Barbas Burgos Ativo 112 / 117 40% 1 06.03.2028 -
Lucas Høgsberg RC Strasbourg Ativo 143 / 142 40% 1 15.02.2028 -
Thulani Manyama SuperSport United Ativo 110 / 117 40% 1 13.02.2028 -
Esquerdinha Notts County Ativo 121 / 128 40% 1 11.02.2028 -
Amine Boukamir Charleroi Ativo 102 / 114 40% 1 10.02.2028 -
Salvador Blopá Sporting CP Ativo 126 / 124 40% 2 17.01.2028 -
Pedro Pelágio Chaves Relatório pronto 117 / 120 79% 1 17.01.2028 -
Sebastián Ramírez Aguilas Doradas Negociando 109 / 106 40% 1 17.01.2028 -
Ivan Giraldo Valencia Ativo 127 / 128 40% 1 10.01.2028 -
Dânio Djassi Portimonense Relatório pronto 117 / 119 79% 1 07.01.2028 -
Mao Hosoya Santos Negociando 134 / 135 90% 1 01.01.2028 -
Toni Fruk Talleres Relatório pronto 132 / 133 89% 1 01.01.2028 -
Dion Beljo AJ Auxerre Negociando 131 / 132 66% 1 01.01.2028 -
Adrian Bajrami Braga Ativo 120 / 124 72% 1 19.07.2027 -
Tommaso Cecotti Carpi Ativo 97 / 98 40% 1 16.06.2027 -
Henrique Silva Santa Clara Ativo 119 / 118 40% 1 16.06.2027 -
Charlie Gray Fleetwood Town Ativo 92 / 103 40% 1 16.06.2027 -
Ollie Scarles West Ham United Ativo 133 / 140 40% 1 02.06.2027 -
Pedro de la Vega Columbus Crew Ativo 133 / 134 66% 1 01.06.2027 -
Manor Solomon West Ham United Ativo 139 / 136 40% 5 29.05.2027 -
Matt O'Riley Brighton Ativo 150 / 142 40% 1 29.05.2027 -
Mohamed-Ali Cho Hull City Ativo 131 / 134 40% 5 28.05.2027 -
Alex Robertson Cardiff City Ativo 119 / 120 40% 2 28.05.2027 -
Dennis Cirkin Queens Park Rangers Ativo 125 / 124 40% 1 28.05.2027 -
Joe Gelhardt Hull City Ativo 141 / 128 40% 6 27.05.2027 -
Derensili Sanches Fernandes Huddersfield Town Ativo 126 / 124 40% 6 27.05.2027 -
Finn Azaz Southampton Ativo 124 / 132 40% 8 26.05.2027 -
Assane Diao Como Ativo 142 / 145 40% 7 26.05.2027 -
Mats Wieffer Brighton Ativo 142 / 144 40% 3 26.05.2027 -
Amine Adli Bournemouth Ativo 144 / 147 40% 1 24.05.2027 -
Samuel Edozie Southampton Ativo 129 / 121 40% 2 23.05.2027 -
Max Johnston Derby County Ativo 125 / 130 40% 1 23.05.2027 -
Kwadwo Baah Watford Ativo 122 / 132 40% 1 23.05.2027 -
Ali Ahmed Norwich City Ativo 124 / 128 40% 1 22.05.2027 -
Milan van Ewijk Coventry City Ativo 139 / 136 40% 1 22.05.2027 -
Savinho Tottenham Ativo 152 / 157 40% 8 19.05.2027 -
Enzo Le Fée Sunderland Ativo 135 / 132 40% 2 16.05.2027 -
Isaiah Jones Luton Town Ativo 130 / 121 40% 3 15.05.2027 -
Kevin Fulham Ativo 145 / 152 40% 3 12.05.2027 -
Chemsdine Talbi Sunderland Ativo 144 / 150 40% 4 06.05.2027 -
Cian Ashford Cardiff City Ativo 112 / 127 40% 2 06.05.2027 -
Jack Rudoni Coventry City Ativo 135 / 130 40% 3 03.05.2027 -
Jason Knight Bristol City Ativo 129 / 128 40% 1 28.04.2027 -
Yehor Yarmoliuk Brentford Ativo 154 / 146 40% 1 28.04.2027 -
Mario Dorgeles Braga Ativo 131 / 131 40% 1 27.04.2027 -
Vinícius Lopes Santa Clara Ativo 114 / 123 40% 2 26.04.2027 Mais informações
Oswin Appollis Orlando Pirates Ativo 117 / 128 40% 3 22.04.2027 -
Juan Bezerra Zamalek Ativo 114 / 121 40% 2 21.04.2027 -
Tyrese Campbell Sheffield United Ativo 135 / 127 40% 1 20.04.2027 -
Mikkel Damsgaard Brentford Ativo 140 / 153 40% 3 17.04.2027 -
Brenner Santa Clara Ativo 122 / 117 40% 1 17.04.2027 -
Wilson Isidor Sunderland Ativo 137 / 133 40% 1 17.04.2027 -
Lorougnon Gohi Académico de Viseu Ativo 119 / 125 40% 4 15.04.2027 -
Manu Pozo Torreense Ativo 119 / 121 40% 3 14.04.2027 -
Louie Barry Sheffield Wednesday Ativo 123 / 118 40% 1 14.04.2027 -
Gustavo Silva Vitoria Guimaraes Ativo 122 / 122 40% 1 10.04.2027 -
Simo Maritimo Ativo 109 / 119 40% 1 09.04.2027 -
Óscar Mingueza Crystal Palace Ativo 145 / 155 40% 3 04.04.2027 -
Nuno Moreira Vasco da Gama Ativo 139 / 126 40% 1 04.04.2027 -
Carlos Vicente Birmingham Ativo 153 / 133 40% 10 31.03.2027 -
Martín Tejón Maritimo Ativo 128 / 123 40% 3 30.03.2027 -
Gonzalo Fulham Ativo 143 / 149 40% 3 29.03.2027 -
Marcelo Allende Mamelodi Sundowns Ativo 135 / 137 40% 3 28.03.2027 -
James Garner Everton Ativo 142 / 150 40% 1 24.03.2027 -
Georginio Rutter Brighton Ativo 154 / 157 40% 2 23.03.2027 -
Santi García Gil Vicente Ativo 131 / 123 40% 1 19.03.2027 -
Fábio Carvalho Brentford Ativo 133 / 132 40% 1 15.03.2027 -
Rafik Guitane Estoril Praia Ativo 135 / 134 40% 1 14.03.2027 -
Callum Hudson-Odoi Nottingham Forest Ativo 161 / 145 40% 2 13.03.2027 -
Daniel Kyerewaa Reading Ativo 109 / 109 40% 1 12.03.2027 -
Pau Víctor Braga Ativo 141 / 130 40% 3 01.03.2027 -
Yeremy Pino Crystal Palace Ativo 153 / 154 40% 2 31.12.2026 -
Bongani Zungu Ajax Cape Town Ativo 135 / 129 40% 2 29.12.2026 -
Roberto Fernández Braga Ativo 137 / 150 40% 10 26.12.2026 Observar
Emi Rodriguez Leon Ativo 113 / 112 40% 1 25.12.2026 -
Ezequiel Bullaude Santos Laguna Ativo 119 / 127 40% 1 25.12.2026 -
Erik Lira Cruz Azul Ativo 127 / 130 40% 1 21.12.2026 -
Justo Giani Umraniyespor Ativo 137 / 115 40% 1 19.12.2026 -
Carlos Álvarez Club America Ativo 147 / 131 40% 2 17.12.2026 -
Jordan van der Gaag Leiria Ativo 108 / 111 40% 3 16.12.2026 -
Bradley Zwane SuperSport United Ativo 121 / 118 40% 1 12.12.2026 -
Brian Gutiérrez Guadalajara Ativo 118 / 134 40% 1 09.12.2026 -
Sorba Thomas Stoke City Ativo 127 / 124 40% 2 20.11.2026 -
Jens Petter Hauge Bodo/Glimt Ativo 135 / 125 40% 1 19.11.2026 -
Marcus Edwards Burnley Ativo 139 / 146 40% 1 13.11.2026 -
Alex Scott Bournemouth Ativo 151 / 158 40% 1 12.11.2026 -
Sota Kitano Red Bull Salzburg Ativo 115 / 133 40% 1 10.11.2026 Mais informações
Diego Lainez Tigres Ativo 125 / 123 40% 2 07.11.2026 Mais informações
Florentino Luís Ipswich Town Ativo 140 / 137 40% 1 07.11.2026 -
William Gomes Porto Ativo 134 / 153 40% 1 05.11.2026 -
Juan Bisanz Huracán Ativo 128 / 122 40% 2 31.10.2026 -
Cristian Ferreira Académico de Viseu Ativo 112 / 128 40% 1 31.10.2026 -
Alex Luna Instituto Ativo 131 / 144 40% 1 31.10.2026 -
Soma Anzai FC Tokyo Ativo 123 / 123 40% 4 30.10.2026 -
Ramiro Sordo Santos Laguna Ativo 116 / 121 40% 1 27.10.2026 -
Tyler Adams Bournemouth Ativo 161 / 152 40% 1 27.10.2026 -
Jadon Sancho Manchester United Ativo 141 / 152 40% 1 23.10.2026 -
Geny Sporting CP Ativo 150 / 144 40% 2 20.10.2026 Mais informações
Scott Twine Bristol City Ativo 116 / 123 40% 1 18.10.2026 -
Yanis Begraoui Estoril Praia Ativo 139 / 143 40% 1 16.10.2026 -
Noni Madueke Arsenal Ativo 161 / 153 40% 1 14.10.2026 -
Brian Rodríguez Club America Ativo 119 / 111 40% 1 12.10.2026 -
Talles Magno New York City Ativo 129 / 121 40% 1 10.10.2026 -
Mason Mount Manchester United Ativo 155 / 143 40% 1 08.10.2026 -
Iván Fresneda Sporting CP Ativo 146 / 150 40% 1 07.10.2026 -
Jaminton Campaz Rosario Central Ativo 124 / 111 40% 1 07.10.2026 -
Ricardo Horta Braga Ativo 144 / 157 40% 1 02.08.2026 -